Time;durP1;ratioP1;P1;durP2;ratioP2;P2;SDS_P1;SDS_P2;PMS_P1;PMS_P2;Temp;Humidity;BMP_temperature;BMP_pressure;BME280_temperature;BME280_humidity;BME280_pressure;Samples;Min_cycle;Max_cycle;Signal;HPM_P1;HPM_P2
2022/12/25 00:02:05;;;;;;;12.70;2.83;;;;;;;;;;5303900;28;20394;-67
2022/12/25 00:04:36;;;;;;;14.20;2.80;;;;;;;;;;5302952;28;20028;-68
2022/12/25 00:07:08;;;;;;;14.55;3.08;;;;;;;;;;5303326;28;20082;-67
2022/12/25 00:09:39;;;;;;;15.88;3.08;;;;;;;;;;5302416;28;20035;-67
2022/12/25 00:12:10;;;;;;;16.27;2.88;;;;;;;;;;5303711;28;20081;-67
2022/12/25 00:14:41;;;;;;;11.00;2.47;;;;;;;;;;5303040;28;20020;-67
2022/12/25 00:17:12;;;;;;;14.93;3.10;;;;;;;;;;5302881;28;20020;-67
2022/12/25 00:19:44;;;;;;;15.85;2.80;;;;;;;;;;5302859;28;20044;-68
2022/12/25 00:22:15;;;;;;;16.38;3.30;;;;;;;;;;5303208;28;20020;-68
2022/12/25 00:24:46;;;;;;;13.63;3.38;;;;;;;;;;5301723;28;20091;-67
2022/12/25 00:27:18;;;;;;;13.73;3.05;;;;;;;;;;5303550;28;20460;-67
2022/12/25 00:29:49;;;;;;;11.27;2.60;;;;;;;;;;5302900;28;20027;-67
2022/12/25 00:32:20;;;;;;;13.45;2.53;;;;;;;;;;5302316;28;20023;-67
2022/12/25 00:34:51;;;;;;;14.60;3.13;;;;;;;;;;5302985;28;20020;-69
2022/12/25 00:37:22;;;;;;;11.63;2.78;;;;;;;;;;5302960;28;20399;-68
2022/12/25 00:39:53;;;;;;;12.63;2.83;;;;;;;;;;5302092;28;20051;-68
2022/12/25 00:42:27;;;;;;;10.25;2.60;;;;;;;;;;5302624;28;20035;-68
2022/12/25 00:45:00;;;;;;;10.20;2.90;;;;;;;;;;5300765;28;20058;-68
2022/12/25 00:47:31;;;;;;;15.48;2.97;;;;;;;;;;5303279;28;20008;-68
2022/12/25 00:50:02;;;;;;;12.40;2.67;;;;;;;;;;5303042;28;20023;-67
2022/12/25 00:52:33;;;;;;;13.73;3.00;;;;;;;;;;5302012;28;20035;-68
2022/12/25 00:55:05;;;;;;;10.15;2.35;;;;;;;;;;5302570;28;20020;-68
2022/12/25 00:57:36;;;;;;;9.95;2.60;;;;;;;;;;5302522;28;20024;-68
2022/12/25 01:00:08;;;;;;;12.38;3.03;;;;;;;;;;5301576;28;20024;-68
2022/12/25 01:02:39;;;;;;;14.27;3.15;;;;;;;;;;5302444;28;20548;-68
2022/12/25 01:05:10;;;;;;;8.98;2.42;;;;;;;;;;5302893;28;20109;-68
2022/12/25 01:07:41;;;;;;;9.77;3.55;;;;;;;;;;5301378;28;20028;-68
2022/12/25 01:10:21;;;;;;;14.32;3.10;;;;;;;;;;5302801;28;20055;-68
2022/12/25 01:12:53;;;;;;;9.63;2.72;;;;;;;;;;5302123;28;20020;-68
2022/12/25 01:15:24;;;;;;;12.27;3.80;;;;;;;;;;5302249;28;20018;-68
2022/12/25 01:17:55;;;;;;;10.95;2.63;;;;;;;;;;5302248;28;20107;-68
2022/12/25 01:20:26;;;;;;;12.07;3.63;;;;;;;;;;5301603;28;20127;-68
2022/12/25 01:22:57;;;;;;;9.57;3.30;;;;;;;;;;5302520;28;20391;-68
2022/12/25 01:25:28;;;;;;;8.38;2.63;;;;;;;;;;5302432;28;20038;-67
2022/12/25 01:28:00;;;;;;;9.73;3.35;;;;;;;;;;5301333;28;20008;-67
2022/12/25 01:30:31;;;;;;;11.70;3.22;;;;;;;;;;5302128;28;20430;-68
2022/12/25 01:33:03;;;;;;;12.77;3.25;;;;;;;;;;5302240;28;20421;-67
2022/12/25 01:35:37;;;;;;;13.80;3.25;;;;;;;;;;5301513;28;20475;-68
2022/12/25 01:38:08;;;;;;;12.50;3.67;;;;;;;;;;5302067;28;20022;-67
2022/12/25 01:40:40;;;;;;;10.20;3.03;;;;;;;;;;5301725;28;20372;-67
2022/12/25 01:43:20;;;;;;;9.68;2.90;;;;;;;;;;5301449;28;20024;-67
2022/12/25 01:45:51;;;;;;;9.00;2.58;;;;;;;;;;5301967;28;20071;-67
2022/12/25 01:48:28;;;;;;;9.75;2.70;;;;;;;;;;5301421;28;20024;-68
2022/12/25 01:51:02;;;;;;;9.27;3.33;;;;;;;;;;5302092;28;20050;-67
2022/12/25 01:53:33;;;;;;;11.25;3.08;;;;;;;;;;5302348;28;20016;-67
2022/12/25 01:56:05;;;;;;;9.57;3.20;;;;;;;;;;5302679;28;20012;-67
2022/12/25 01:58:37;;;;;;;10.98;3.20;;;;;;;;;;5306237;28;20023;-67
2022/12/25 02:01:08;;;;;;;11.38;2.78;;;;;;;;;;5305946;28;20020;-67
2022/12/25 02:03:41;;;;;;;11.77;3.50;;;;;;;;;;5304950;28;20024;-67
2022/12/25 02:06:12;;;;;;;9.40;2.67;;;;;;;;;;5306156;28;20032;-67
2022/12/25 02:08:43;;;;;;;9.75;2.58;;;;;;;;;;5305347;28;20069;-67
2022/12/25 02:11:55;;;;;;;9.60;2.53;;;;;;;;;;5305085;28;20050;-67
2022/12/25 02:14:06;;;;;;;13.65;3.30;;;;;;;;;;5305302;28;20020;-67
2022/12/25 02:16:39;;;;;;;8.82;2.35;;;;;;;;;;5304786;28;20494;-67
2022/12/25 02:19:23;;;;;;;7.20;2.28;;;;;;;;;;5306046;28;20066;-67
2022/12/25 02:21:57;;;;;;;9.80;2.40;;;;;;;;;;5305484;28;20035;-67
2022/12/25 02:24:48;;;;;;;8.57;1.80;;;;;;;;;;5304836;28;20051;-68
2022/12/25 02:27:48;;;;;;;7.50;2.08;;;;;;;;;;5306104;28;20024;-67
2022/12/25 02:30:19;;;;;;;7.90;2.25;;;;;;;;;;5291360;28;20032;-68
2022/12/25 02:34:01;;;;;;;7.28;2.55;;;;;;;;;;5305126;28;20417;-69
2022/12/25 02:35:50;;;;;;;8.18;3.10;;;;;;;;;;5304881;28;20028;-68
2022/12/25 02:38:24;;;;;;;11.55;2.45;;;;;;;;;;5304271;28;20058;-67
2022/12/25 02:40:57;;;;;;;7.25;2.25;;;;;;;;;;5305259;28;20028;-67
2022/12/25 03:07:03;;;;;;;9.38;3.17;;;;;;;;;;5303656;28;20024;-68
2022/12/25 03:12:48;;;;;;;13.93;3.63;;;;;;;;;;5304160;28;20020;-68
2022/12/25 03:18:10;;;;;;;13.10;3.58;;;;;;;;;;5304867;28;20471;-68
2022/12/25 03:31:10;;;;;;;6.97;2.25;;;;;;;;;;5304321;28;20028;-68
2022/12/25 03:32:20;;;;;;;7.45;2.50;;;;;;;;;;5303776;28;20089;-67
2022/12/25 04:38:02;;;;;;;3.05;0.80;;;;;;;;;;5301938;28;20012;-68
2022/12/25 04:40:34;;;;;;;6.03;1.10;;;;;;;;;;5302483;28;20036;-68
2022/12/25 04:43:05;;;;;;;6.65;1.33;;;;;;;;;;5302730;28;20471;-68
2022/12/25 04:45:36;;;;;;;6.15;0.90;;;;;;;;;;5301649;28;20051;-68
2022/12/25 04:48:07;;;;;;;4.85;0.80;;;;;;;;;;5302563;28;20070;-68
2022/12/25 04:50:38;;;;;;;6.20;1.23;;;;;;;;;;5302285;28;20020;-68
2022/12/25 04:53:09;;;;;;;5.28;0.98;;;;;;;;;;5302054;28;20020;-69
2022/12/25 04:55:41;;;;;;;2.13;0.70;;;;;;;;;;5302323;28;20030;-69
2022/12/25 04:58:12;;;;;;;2.25;0.80;;;;;;;;;;5302012;28;20095;-68
2022/12/25 05:00:43;;;;;;;5.25;0.95;;;;;;;;;;5301896;28;20082;-68
2022/12/25 05:03:15;;;;;;;4.45;0.90;;;;;;;;;;5302414;28;20471;-68
2022/12/25 05:05:47;;;;;;;5.05;0.88;;;;;;;;;;5301257;28;20383;-66
2022/12/25 05:08:18;;;;;;;3.10;0.70;;;;;;;;;;5302725;28;20040;-67
2022/12/25 05:10:50;;;;;;;3.90;0.85;;;;;;;;;;5301967;28;20082;-68
2022/12/25 05:13:21;;;;;;;8.43;1.35;;;;;;;;;;5301306;28;20027;-67
2022/12/25 05:15:52;;;;;;;4.70;0.70;;;;;;;;;;5302253;28;20486;-67
2022/12/25 05:18:23;;;;;;;3.60;0.80;;;;;;;;;;5302297;28;20032;-67
2022/12/25 05:20:55;;;;;;;3.35;0.60;;;;;;;;;;5301227;28;20032;-67
2022/12/25 05:23:26;;;;;;;4.75;0.50;;;;;;;;;;5302263;28;20091;-67
2022/12/25 05:25:57;;;;;;;5.75;0.60;;;;;;;;;;5301979;28;20036;-67
2022/12/25 05:28:28;;;;;;;4.05;0.60;;;;;;;;;;5301409;28;20023;-68
2022/12/25 05:30:59;;;;;;;4.63;0.80;;;;;;;;;;5303150;28;20023;-67
2022/12/25 05:33:31;;;;;;;4.03;1.15;;;;;;;;;;5305487;28;20023;-67
2022/12/25 05:36:06;;;;;;;4.10;0.60;;;;;;;;;;5306076;28;20066;-67
2022/12/25 05:38:37;;;;;;;4.68;0.60;;;;;;;;;;5306194;28;20016;-67
2022/12/25 05:41:08;;;;;;;3.03;0.60;;;;;;;;;;5305237;28;20518;-68
2022/12/25 05:43:39;;;;;;;2.42;0.50;;;;;;;;;;5305760;28;20079;-68
2022/12/25 05:46:11;;;;;;;4.65;0.70;;;;;;;;;;5306078;28;20407;-67
2022/12/25 05:48:43;;;;;;;3.30;0.52;;;;;;;;;;5304735;28;20023;-67
2022/12/25 05:51:14;;;;;;;3.65;0.70;;;;;;;;;;5306178;28;20060;-67
2022/12/25 05:53:45;;;;;;;3.05;0.60;;;;;;;;;;5305470;28;20019;-68
2022/12/25 05:56:16;;;;;;;4.88;0.75;;;;;;;;;;5305409;28;20466;-68
2022/12/25 05:58:48;;;;;;;5.45;0.68;;;;;;;;;;5305289;28;20024;-68
2022/12/25 06:01:20;;;;;;;5.32;0.98;;;;;;;;;;5304820;28;20154;-68
2022/12/25 06:03:52;;;;;;;2.45;0.60;;;;;;;;;;5305450;28;20047;-68
2022/12/25 06:06:23;;;;;;;3.35;0.50;;;;;;;;;;5305775;28;20043;-67
2022/12/25 06:08:54;;;;;;;2.60;0.50;;;;;;;;;;5304896;28;20056;-67
2022/12/25 06:11:26;;;;;;;4.45;0.63;;;;;;;;;;5305432;28;20051;-67
2022/12/25 06:13:57;;;;;;;2.00;0.60;;;;;;;;;;5305261;28;20031;-67
2022/12/25 06:16:28;;;;;;;2.47;0.40;;;;;;;;;;5304810;28;20034;-67
2022/12/25 06:18:59;;;;;;;4.13;0.60;;;;;;;;;;5305201;28;20020;-67
2022/12/25 06:21:30;;;;;;;4.43;0.55;;;;;;;;;;5304936;28;20494;-68
2022/12/25 06:24:02;;;;;;;3.78;0.40;;;;;;;;;;5304587;28;20402;-67
2022/12/25 06:26:33;;;;;;;5.53;0.77;;;;;;;;;;5305186;28;20028;-67
2022/12/25 06:29:04;;;;;;;3.63;0.70;;;;;;;;;;5305069;28;20023;-67
2022/12/25 06:31:35;;;;;;;2.90;0.47;;;;;;;;;;5304330;28;20031;-67
2022/12/25 06:34:07;;;;;;;3.60;0.80;;;;;;;;;;5305111;28;20020;-68
2022/12/25 06:36:38;;;;;;;1.88;0.50;;;;;;;;;;5303904;28;20024;-67
2022/12/25 06:39:09;;;;;;;3.60;0.50;;;;;;;;;;5305260;28;20103;-68
2022/12/25 06:41:40;;;;;;;3.30;0.50;;;;;;;;;;5304410;28;20043;-67
2022/12/25 06:44:12;;;;;;;3.53;0.55;;;;;;;;;;5303261;28;20012;-68
2022/12/25 06:46:43;;;;;;;4.55;0.70;;;;;;;;;;5304559;28;20022;-68
2022/12/25 06:49:15;;;;;;;2.95;0.50;;;;;;;;;;5305148;28;20026;-67
2022/12/25 06:51:46;;;;;;;3.38;0.52;;;;;;;;;;5303932;28;20016;-68
2022/12/25 06:54:17;;;;;;;3.97;0.50;;;;;;;;;;5305045;28;20364;-67
2022/12/25 06:56:49;;;;;;;2.72;0.60;;;;;;;;;;5304408;28;20086;-68
2022/12/25 06:59:21;;;;;;;2.78;0.60;;;;;;;;;;5303832;28;20047;-68
2022/12/25 07:01:53;;;;;;;4.03;0.60;;;;;;;;;;5304440;28;20024;-68
2022/12/25 07:04:24;;;;;;;3.70;0.60;;;;;;;;;;5304368;28;20024;-67
2022/12/25 07:06:55;;;;;;;4.30;0.65;;;;;;;;;;5303532;28;20024;-67
2022/12/25 07:09:26;;;;;;;3.53;0.65;;;;;;;;;;5304435;28;20756;-68
2022/12/25 07:12:02;;;;;;;3.95;0.70;;;;;;;;;;5303371;28;20467;-68
2022/12/25 07:14:33;;;;;;;2.45;0.50;;;;;;;;;;5303982;28;20047;-68
2022/12/25 07:17:04;;;;;;;2.13;0.60;;;;;;;;;;5303789;28;20430;-68
2022/12/25 07:19:35;;;;;;;5.15;0.90;;;;;;;;;;5303627;28;20111;-68
2022/12/25 07:22:06;;;;;;;4.35;0.60;;;;;;;;;;5304013;28;20035;-69
2022/12/25 07:24:38;;;;;;;3.83;0.57;;;;;;;;;;5303848;28;20103;-68
2022/12/25 07:27:09;;;;;;;2.22;0.73;;;;;;;;;;5303718;28;20446;-68
2022/12/25 07:29:40;;;;;;;2.38;0.70;;;;;;;;;;5303723;28;20024;-68
2022/12/25 07:32:11;;;;;;;3.20;0.60;;;;;;;;;;5304068;28;20008;-68
2022/12/25 07:34:43;;;;;;;4.18;0.70;;;;;;;;;;5302526;28;20580;-68
2022/12/25 07:37:15;;;;;;;2.90;0.57;;;;;;;;;;5303871;28;20410;-68
2022/12/25 07:39:46;;;;;;;3.42;0.65;;;;;;;;;;5302624;28;20031;-68
2022/12/25 07:42:17;;;;;;;4.10;0.84;;;;;;;;;;5304041;28;20114;-69
2022/12/25 07:44:48;;;;;;;3.00;0.52;;;;;;;;;;5303033;28;20074;-67
2022/12/25 07:47:19;;;;;;;3.80;0.50;;;;;;;;;;5302833;28;20055;-68
2022/12/25 07:49:50;;;;;;;2.33;0.50;;;;;;;;;;5302975;28;20016;-67
2022/12/25 07:52:22;;;;;;;3.60;0.60;;;;;;;;;;5303399;28;20494;-67
2022/12/25 07:54:53;;;;;;;5.13;0.65;;;;;;;;;;5302716;28;20038;-67
2022/12/25 07:57:24;;;;;;;4.90;0.60;;;;;;;;;;5303368;28;20024;-68
2022/12/25 07:59:55;;;;;;;2.00;0.50;;;;;;;;;;5303112;28;20046;-68
2022/12/25 08:02:27;;;;;;;2.67;0.50;;;;;;;;;;5302379;28;20098;-68
2022/12/25 08:04:58;;;;;;;1.67;0.45;;;;;;;;;;5303301;28;20107;-69
2022/12/25 08:07:29;;;;;;;2.55;0.43;;;;;;;;;;5303127;28;20046;-68
2022/12/25 08:10:01;;;;;;;2.78;0.60;;;;;;;;;;5302484;28;20016;-68
2022/12/25 08:12:32;;;;;;;3.13;0.60;;;;;;;;;;5303174;28;20069;-67
2022/12/25 08:15:04;;;;;;;2.03;0.50;;;;;;;;;;5301435;28;20548;-69
2022/12/25 08:17:35;;;;;;;2.35;0.60;;;;;;;;;;5302922;28;20473;-69
2022/12/25 08:20:06;;;;;;;3.10;0.70;;;;;;;;;;5302790;28;20032;-68
2022/12/25 08:22:38;;;;;;;2.72;0.68;;;;;;;;;;5301829;28;20032;-69
2022/12/25 08:25:09;;;;;;;4.07;0.93;;;;;;;;;;5302730;28;20024;-69
2022/12/25 08:27:40;;;;;;;3.88;0.70;;;;;;;;;;5302589;28;20035;-69
2022/12/25 08:30:11;;;;;;;2.65;0.75;;;;;;;;;;5302557;28;20020;-69
2022/12/25 08:32:43;;;;;;;2.70;0.70;;;;;;;;;;5302551;28;20023;-69
2022/12/25 08:35:14;;;;;;;3.72;0.68;;;;;;;;;;5303266;28;20024;-70
2022/12/25 08:37:45;;;;;;;5.97;1.10;;;;;;;;;;5301489;28;20031;-70
2022/12/25 08:40:16;;;;;;;3.53;0.90;;;;;;;;;;5302996;28;20560;-69
2022/12/25 08:42:48;;;;;;;3.67;1.10;;;;;;;;;;5302824;28;20463;-69
2022/12/25 08:45:19;;;;;;;4.10;0.90;;;;;;;;;;5302168;28;20079;-69
2022/12/25 08:47:54;;;;;;;3.13;0.80;;;;;;;;;;5302406;28;20102;-69
2022/12/25 08:50:25;;;;;;;2.05;0.80;;;;;;;;;;5301824;28;20016;-70
2022/12/25 08:52:56;;;;;;;4.35;1.02;;;;;;;;;;5301039;28;20352;-69
2022/12/25 08:55:28;;;;;;;4.18;1.23;;;;;;;;;;5302166;28;20028;-69
2022/12/25 08:57:59;;;;;;;5.32;1.20;;;;;;;;;;5301629;28;20102;-69
2022/12/25 09:00:30;;;;;;;3.92;1.40;;;;;;;;;;5301904;28;20039;-70
2022/12/25 09:03:02;;;;;;;5.22;1.23;;;;;;;;;;5291088;28;20028;-68
2022/12/25 09:05:34;;;;;;;5.18;1.65;;;;;;;;;;5283402;28;20142;-68
2022/12/25 09:08:05;;;;;;;5.40;1.20;;;;;;;;;;5279998;28;20048;-68
2022/12/25 09:10:36;;;;;;;3.45;0.85;;;;;;;;;;5280005;28;20059;-68
2022/12/25 09:13:08;;;;;;;4.53;0.80;;;;;;;;;;5278855;28;20044;-68
2022/12/25 09:15:39;;;;;;;3.72;1.15;;;;;;;;;;5279529;28;20086;-68
2022/12/25 09:18:11;;;;;;;3.28;0.98;;;;;;;;;;5279665;28;20027;-68
2022/12/25 09:20:42;;;;;;;2.90;0.80;;;;;;;;;;5278874;28;20066;-68
2022/12/25 09:23:13;;;;;;;4.10;0.95;;;;;;;;;;5280768;28;20016;-68
2022/12/25 09:25:44;;;;;;;3.80;0.90;;;;;;;;;;5279143;28;20101;-68
2022/12/25 09:28:15;;;;;;;4.22;1.36;;;;;;;;;;5280683;28;20009;-68
2022/12/25 09:30:49;;;;;;;4.22;0.82;;;;;;;;;;5280044;28;20087;-70
2022/12/25 09:33:21;;;;;;;2.60;0.82;;;;;;;;;;5279269;28;20092;-68
2022/12/25 09:36:00;;;;;;;3.83;0.88;;;;;;;;;;5280836;28;20131;-69
2022/12/25 09:38:31;;;;;;;3.17;0.70;;;;;;;;;;5281059;28;20020;-69
2022/12/25 09:41:06;;;;;;;2.47;0.70;;;;;;;;;;5279756;28;20029;-68
2022/12/25 09:43:40;;;;;;;2.55;0.60;;;;;;;;;;5280629;28;20013;-68
2022/12/25 09:46:16;;;;;;;3.28;0.82;;;;;;;;;;5280878;28;20049;-68
2022/12/25 09:48:55;;;;;;;3.35;0.80;;;;;;;;;;5279944;28;20452;-68
2022/12/25 09:51:26;;;;;;;2.17;0.60;;;;;;;;;;5281146;28;20021;-68
2022/12/25 09:54:00;;;;;;;3.42;0.60;;;;;;;;;;5280342;28;20020;-68
2022/12/25 09:56:32;;;;;;;3.28;0.90;;;;;;;;;;5280764;28;20046;-68
2022/12/25 09:59:08;;;;;;;4.28;0.88;;;;;;;;;;5280713;28;20028;-68
2022/12/25 10:01:43;;;;;;;3.38;0.90;;;;;;;;;;5279784;28;20028;-68
2022/12/25 10:04:32;;;;;;;2.17;0.70;;;;;;;;;;5281014;28;20024;-69
2022/12/25 10:07:06;;;;;;;2.92;0.90;;;;;;;;;;5280696;28;20027;-68
2022/12/25 10:09:55;;;;;;;4.75;1.10;;;;;;;;;;5279960;28;20032;-69
2022/12/25 10:12:33;;;;;;;5.30;1.20;;;;;;;;;;5280569;28;20033;-68
2022/12/25 10:15:16;;;;;;;2.67;1.00;;;;;;;;;;5279996;28;20020;-68
2022/12/25 10:18:06;;;;;;;3.53;1.05;;;;;;;;;;5282539;28;20021;-68
2022/12/25 10:20:50;;;;;;;5.22;1.40;;;;;;;;;;5284340;28;20369;-68
2022/12/25 10:23:24;;;;;;;4.72;1.58;;;;;;;;;;5283502;28;20025;-68
2022/12/25 10:25:55;;;;;;;4.57;1.55;;;;;;;;;;5284186;28;20028;-68
2022/12/25 10:28:39;;;;;;;3.70;1.55;;;;;;;;;;5284193;28;20020;-69
2022/12/25 10:31:19;;;;;;;3.63;1.25;;;;;;;;;;5284558;28;20016;-68
2022/12/25 10:33:51;;;;;;;5.10;1.38;;;;;;;;;;5283885;28;20095;-68
2022/12/25 10:36:24;;;;;;;5.50;1.33;;;;;;;;;;5283321;28;20039;-68
2022/12/25 10:38:55;;;;;;;4.35;1.98;;;;;;;;;;5281998;28;20020;-67
2022/12/25 10:41:30;;;;;;;3.85;1.60;;;;;;;;;;5291330;28;20476;-67
2022/12/25 10:44:11;;;;;;;4.72;1.90;;;;;;;;;;5284290;28;20479;-67
2022/12/25 10:46:46;;;;;;;5.03;1.50;;;;;;;;;;5296170;28;20039;-67
2022/12/25 10:49:19;;;;;;;3.33;1.48;;;;;;;;;;5283181;28;20016;-67
2022/12/25 10:51:51;;;;;;;4.18;1.40;;;;;;;;;;5282435;28;20032;-67
2022/12/25 10:54:24;;;;;;;3.78;1.70;;;;;;;;;;5283681;28;20046;-68
2022/12/25 10:56:56;;;;;;;3.42;1.42;;;;;;;;;;5282732;28;20035;-67
2022/12/25 10:59:29;;;;;;;2.50;1.23;;;;;;;;;;5283261;28;20021;-68
2022/12/25 11:02:10;;;;;;;4.03;1.27;;;;;;;;;;5283192;28;20032;-67
2022/12/25 11:04:41;;;;;;;3.20;1.00;;;;;;;;;;5282289;28;20020;-68
2022/12/25 11:07:12;;;;;;;2.47;1.10;;;;;;;;;;5283790;28;20478;-66
2022/12/25 11:09:53;;;;;;;3.53;1.17;;;;;;;;;;5282979;28;20198;-68
2022/12/25 11:12:29;;;;;;;4.65;1.55;;;;;;;;;;5281326;28;20286;-68
2022/12/25 11:15:06;;;;;;;3.15;1.48;;;;;;;;;;5283533;28;20108;-68
2022/12/25 11:17:37;;;;;;;5.28;2.30;;;;;;;;;;5283152;28;20074;-67
2022/12/25 11:20:15;;;;;;;4.30;1.98;;;;;;;;;;5282081;28;20082;-67
2022/12/25 11:22:47;;;;;;;3.60;2.47;;;;;;;;;;5282655;28;20024;-68
2022/12/25 11:25:24;;;;;;;5.15;2.50;;;;;;;;;;5282291;28;20028;-68
2022/12/25 11:27:59;;;;;;;4.80;1.98;;;;;;;;;;5282580;28;20094;-69
2022/12/25 11:30:31;;;;;;;2.97;1.73;;;;;;;;;;5282466;28;20028;-67
2022/12/25 11:33:08;;;;;;;4.05;1.83;;;;;;;;;;5281825;28;20055;-68
2022/12/25 11:35:46;;;;;;;4.65;1.52;;;;;;;;;;5282543;28;20059;-68
2022/12/25 11:38:18;;;;;;;2.70;1.92;;;;;;;;;;5283474;28;20487;-69
2022/12/25 11:40:54;;;;;;;4.13;1.92;;;;;;;;;;5281637;28;20039;-68
2022/12/25 11:43:32;;;;;;;4.40;1.65;;;;;;;;;;5282664;28;20013;-68
2022/12/25 11:46:10;;;;;;;4.03;2.22;;;;;;;;;;5281155;28;20056;-68
2022/12/25 11:48:47;;;;;;;4.55;2.92;;;;;;;;;;5282196;28;20021;-68
2022/12/25 11:51:18;;;;;;;4.18;2.90;;;;;;;;;;5282532;28;20499;-68
2022/12/25 11:53:51;;;;;;;5.10;3.90;;;;;;;;;;5281048;28;20017;-67
2022/12/25 11:56:27;;;;;;;4.50;2.85;;;;;;;;;;5282584;28;20483;-67
2022/12/25 11:59:37;;;;;;;4.97;2.38;;;;;;;;;;5282442;28;20024;-69
2022/12/25 12:02:11;;;;;;;5.47;2.33;;;;;;;;;;5237448;28;20033;-69
2022/12/25 12:04:43;;;;;;;3.25;1.60;;;;;;;;;;5238160;28;20059;-69
2022/12/25 12:07:20;;;;;;;3.60;2.25;;;;;;;;;;5263298;28;20354;-69
2022/12/25 12:10:00;;;;;;;5.43;3.15;;;;;;;;;;5281583;28;20017;-69
2022/12/25 12:12:31;;;;;;;4.95;2.95;;;;;;;;;;5281688;28;20016;-68
2022/12/25 12:15:07;;;;;;;5.30;2.82;;;;;;;;;;5281017;28;20027;-69
2022/12/25 12:17:38;;;;;;;4.72;3.03;;;;;;;;;;5281570;28;20059;-69
2022/12/25 12:20:11;;;;;;;3.72;3.13;;;;;;;;;;5281959;28;20432;-69
2022/12/25 12:22:47;;;;;;;5.15;3.17;;;;;;;;;;5280496;28;20095;-69
2022/12/25 12:25:19;;;;;;;6.72;3.70;;;;;;;;;;5282352;28;20050;-68
2022/12/25 12:27:55;;;;;;;5.32;3.92;;;;;;;;;;5281723;28;20017;-68
2022/12/25 12:30:28;;;;;;;5.07;3.92;;;;;;;;;;5281198;28;20023;-69
2022/12/25 12:33:01;;;;;;;6.30;3.72;;;;;;;;;;5281575;28;20036;-70
2022/12/25 12:35:33;;;;;;;5.82;4.20;;;;;;;;;;5281039;28;20038;-70
2022/12/25 12:38:23;;;;;;;4.68;3.28;;;;;;;;;;5281824;28;20017;-70
2022/12/25 12:41:05;;;;;;;5.22;3.70;;;;;;;;;;5280818;28;20400;-69
2022/12/25 12:43:41;;;;;;;6.10;4.28;;;;;;;;;;5280672;28;20376;-69
2022/12/25 12:46:14;;;;;;;4.60;4.20;;;;;;;;;;5281610;28;20052;-68
2022/12/25 12:48:50;;;;;;;7.55;5.50;;;;;;;;;;5281112;28;20430;-69
2022/12/25 12:51:32;;;;;;;5.65;5.15;;;;;;;;;;5286944;28;20026;-69
2022/12/25 12:54:23;;;;;;;5.45;4.95;;;;;;;;;;5302106;28;20052;-69
2022/12/25 12:57:01;;;;;;;5.85;5.13;;;;;;;;;;5301619;28;20019;-70
2022/12/25 12:59:38;;;;;;;8.55;7.00;;;;;;;;;;5301718;28;20095;-69
2022/12/25 13:02:12;;;;;;;9.43;6.78;;;;;;;;;;5302187;28;20084;-70
2022/12/25 13:05:01;;;;;;;8.88;7.35;;;;;;;;;;5301160;28;20063;-70
2022/12/25 13:07:32;;;;;;;;;;;;;;;;;;5302696;28;20383;-70
2022/12/25 13:10:03;;;;;;;7.18;6.45;;;;;;;;;;5301910;28;19904;-70
2022/12/25 13:12:35;;;;;;;10.70;6.97;;;;;;;;;;5300794;28;20456;-70
2022/12/25 13:15:13;;;;;;;7.75;6.97;;;;;;;;;;5301984;28;20497;-70
2022/12/25 13:17:44;;;;;;;7.32;6.40;;;;;;;;;;5301332;28;20379;-70
2022/12/25 13:20:34;;;;;;;6.93;6.10;;;;;;;;;;5291739;28;20024;-70
2022/12/25 13:23:12;;;;;;;6.30;5.40;;;;;;;;;;5290122;28;20027;-70
2022/12/25 13:25:50;;;;;;;9.00;7.70;;;;;;;;;;5299887;28;20034;-70
2022/12/25 13:28:25;;;;;;;6.35;5.75;;;;;;;;;;5291377;28;20468;-70
2022/12/25 13:31:04;;;;;;;6.45;5.85;;;;;;;;;;5300173;28;20035;-70
2022/12/25 13:33:35;;;;;;;6.10;5.50;;;;;;;;;;5295926;28;20024;-70
2022/12/25 13:36:11;;;;;;;6.85;6.25;;;;;;;;;;5288130;28;20108;-69
2022/12/25 13:38:46;;;;;;;7.32;6.57;;;;;;;;;;5279319;28;20027;-70
2022/12/25 13:44:25;;;;;;;7.72;6.63;;;;;;;;;;5280353;28;20029;-70
2022/12/25 13:47:06;;;;;;;6.50;5.90;;;;;;;;;;5295858;28;20134;-71
2022/12/25 13:49:37;;;;;;;7.53;6.82;;;;;;;;;;5301825;28;20027;-69
2022/12/25 13:52:12;;;;;;;8.32;6.30;;;;;;;;;;5302916;28;20384;-69
2022/12/25 13:54:54;;;;;;;7.28;5.50;;;;;;;;;;5304770;28;20024;-70
2022/12/25 13:57:36;;;;;;;5.47;4.78;;;;;;;;;;5305672;28;20023;-70
2022/12/25 14:00:15;;;;;;;5.50;5.00;;;;;;;;;;5304916;28;20016;-69
2022/12/25 14:02:46;;;;;;;5.97;5.30;;;;;;;;;;5305596;28;20467;-69
2022/12/25 14:05:24;;;;;;;6.97;6.03;;;;;;;;;;5306020;28;20016;-68
2022/12/25 14:07:56;;;;;;;6.13;5.53;;;;;;;;;;5304694;28;20036;-69
2022/12/25 14:10:36;;;;;;;5.20;4.70;;;;;;;;;;5305279;28;20055;-70
2022/12/25 14:13:12;;;;;;;5.63;5.13;;;;;;;;;;5305249;28;20024;-69
2022/12/25 14:15:45;;;;;;;4.88;4.38;;;;;;;;;;5304591;28;20016;-71
2022/12/25 14:18:17;;;;;;;5.25;4.75;;;;;;;;;;5305769;28;20016;-68
2022/12/25 14:21:05;;;;;;;6.13;4.78;;;;;;;;;;5304200;28;20024;-69
2022/12/25 14:23:40;;;;;;;4.38;4.00;;;;;;;;;;5305262;28;20490;-69
2022/12/25 14:26:22;;;;;;;4.57;4.18;;;;;;;;;;5305050;28;20034;-68
2022/12/25 14:29:08;;;;;;;5.88;4.97;;;;;;;;;;5300756;28;20532;-69
2022/12/25 14:31:39;;;;;;;5.75;5.25;;;;;;;;;;5302734;28;20556;-70
2022/12/25 14:34:14;;;;;;;5.40;4.90;;;;;;;;;;5304551;28;20060;-70
2022/12/25 14:36:46;;;;;;;5.97;5.43;;;;;;;;;;5303723;28;20153;-69
2022/12/25 14:39:34;;;;;;;5.45;4.95;;;;;;;;;;5304712;28;20024;-69
2022/12/25 14:42:11;;;;;;;5.57;4.90;;;;;;;;;;5301244;28;20032;-69
2022/12/25 14:44:42;;;;;;;6.10;4.82;;;;;;;;;;5301505;28;20048;-69
2022/12/25 14:47:17;;;;;;;5.97;5.47;;;;;;;;;;5304393;28;20035;-69
2022/12/25 14:49:49;;;;;;;5.82;5.20;;;;;;;;;;5303364;28;20016;-69
2022/12/25 14:52:22;;;;;;;5.80;5.30;;;;;;;;;;5303722;28;20633;-69
2022/12/25 14:54:59;;;;;;;5.20;4.80;;;;;;;;;;5304155;28;20394;-70
2022/12/25 14:57:36;;;;;;;4.95;4.55;;;;;;;;;;5303833;28;20459;-71
2022/12/25 15:00:20;;;;;;;6.03;5.43;;;;;;;;;;5303653;28;20028;-70
2022/12/25 15:02:52;;;;;;;5.82;5.32;;;;;;;;;;5302959;28;20124;-70
2022/12/25 15:05:25;;;;;;;5.78;5.18;;;;;;;;;;5303859;28;20073;-70
2022/12/25 15:08:02;;;;;;;6.20;5.10;;;;;;;;;;5304730;28;20417;-70
2022/12/25 15:10:34;;;;;;;6.18;5.65;;;;;;;;;;5303101;28;20050;-70
2022/12/25 15:13:05;;;;;;;6.25;5.68;;;;;;;;;;5303976;28;20032;-70
2022/12/25 15:15:36;;;;;;;6.18;5.63;;;;;;;;;;5304278;28;20089;-70
2022/12/25 15:18:09;;;;;;;6.45;5.93;;;;;;;;;;5302938;28;20479;-69
2022/12/25 15:20:40;;;;;;;5.82;5.32;;;;;;;;;;5302591;28;20047;-70
2022/12/25 15:23:14;;;;;;;6.53;5.57;;;;;;;;;;5303730;28;20016;-69
2022/12/25 15:25:46;;;;;;;6.50;5.90;;;;;;;;;;5301267;28;20020;-70
2022/12/25 15:28:18;;;;;;;6.72;6.13;;;;;;;;;;5303091;28;20639;-71
2022/12/25 15:30:49;;;;;;;7.38;6.68;;;;;;;;;;5300892;28;20020;-71
2022/12/25 15:33:20;;;;;;;6.22;5.72;;;;;;;;;;5299947;28;20019;-70
2022/12/25 15:35:51;;;;;;;7.18;6.03;;;;;;;;;;5299208;28;20031;-71
2022/12/25 15:38:23;;;;;;;6.60;6.00;;;;;;;;;;5299256;28;20067;-71
2022/12/25 15:40:54;;;;;;;7.07;6.40;;;;;;;;;;5299827;28;20301;-68
2022/12/25 15:43:25;;;;;;;6.93;6.32;;;;;;;;;;5300715;28;20016;-69
2022/12/25 15:45:56;;;;;;;8.50;7.70;;;;;;;;;;5301010;28;20086;-69
2022/12/25 15:48:28;;;;;;;8.50;7.72;;;;;;;;;;5297910;28;20035;-70
2022/12/25 15:50:59;;;;;;;8.88;8.00;;;;;;;;;;5301348;28;20032;-71
2022/12/25 15:53:30;;;;;;;10.73;8.48;;;;;;;;;;5300503;28;20017;-70
2022/12/25 15:56:01;;;;;;;11.07;10.15;;;;;;;;;;5300382;28;20762;-71
2022/12/25 15:58:33;;;;;;;10.13;9.23;;;;;;;;;;5300601;28;20016;-71
2022/12/25 16:01:04;;;;;;;10.93;9.93;;;;;;;;;;5299460;28;20044;-71
2022/12/25 16:03:35;;;;;;;11.57;9.95;;;;;;;;;;5297562;28;20020;-73
2022/12/25 16:06:14;;;;;;;10.30;9.40;;;;;;;;;;5297220;28;20024;-71
2022/12/25 16:08:45;;;;;;;11.07;9.98;;;;;;;;;;5298292;28;20487;-71
2022/12/25 16:11:16;;;;;;;11.43;10.25;;;;;;;;;;5301875;28;20059;-71
2022/12/25 16:13:47;;;;;;;10.45;9.45;;;;;;;;;;5300961;28;20031;-69
2022/12/25 16:16:19;;;;;;;10.77;9.68;;;;;;;;;;5301550;28;20028;-72
2022/12/25 16:18:50;;;;;;;9.85;8.95;;;;;;;;;;5300242;28;20092;-70
2022/12/25 16:21:21;;;;;;;9.43;8.52;;;;;;;;;;5291623;28;20078;-72
2022/12/25 16:23:53;;;;;;;10.25;9.38;;;;;;;;;;5297333;28;20028;-71
2022/12/25 16:26:24;;;;;;;9.30;8.50;;;;;;;;;;5299035;28;20020;-70
2022/12/25 16:28:55;;;;;;;9.15;8.25;;;;;;;;;;5299838;28;20074;-70
2022/12/25 16:31:26;;;;;;;8.75;7.80;;;;;;;;;;5298878;28;20039;-70
2022/12/25 16:33:57;;;;;;;9.45;8.57;;;;;;;;;;5297981;28;20532;-71
2022/12/25 16:36:29;;;;;;;9.55;8.60;;;;;;;;;;5297902;28;20039;-71
2022/12/25 16:39:00;;;;;;;8.73;7.95;;;;;;;;;;5297916;28;20059;-70
2022/12/25 16:41:31;;;;;;;9.27;8.45;;;;;;;;;;5299319;28;20036;-70
2022/12/25 16:44:09;;;;;;;9.27;8.38;;;;;;;;;;5300217;28;20030;-70
2022/12/25 16:46:40;;;;;;;9.82;8.85;;;;;;;;;;5299748;28;20083;-70
2022/12/25 16:49:12;;;;;;;12.45;11.23;;;;;;;;;;5300884;28;20028;-71
2022/12/25 16:51:43;;;;;;;11.90;10.40;;;;;;;;;;5300938;28;20032;-71
2022/12/25 16:54:14;;;;;;;12.38;10.88;;;;;;;;;;5302207;28;20352;-70
2022/12/25 16:56:45;;;;;;;14.90;12.88;;;;;;;;;;5300549;28;20070;-70
2022/12/25 16:59:16;;;;;;;13.82;12.32;;;;;;;;;;5302419;28;20027;-70
2022/12/25 17:01:48;;;;;;;12.23;11.00;;;;;;;;;;5300722;28;20495;-71
2022/12/25 17:04:19;;;;;;;11.73;10.63;;;;;;;;;;5300844;28;20012;-70